sensor_id;sensor_type;location;lat;lon;timestamp;temperature;humidity
4693;DHT22;11710;48.024;16.296;2022-10-16T00:01:53;12.40;99.90
4693;DHT22;11710;48.024;16.296;2022-10-16T00:04:20;12.40;99.90
4693;DHT22;11710;48.024;16.296;2022-10-16T00:06:47;12.40;99.90
4693;DHT22;11710;48.024;16.296;2022-10-16T00:09:15;12.40;99.90
4693;DHT22;11710;48.024;16.296;2022-10-16T00:11:42;12.40;99.90
4693;DHT22;11710;48.024;16.296;2022-10-16T00:14:12;12.50;99.90
4693;DHT22;11710;48.024;16.296;2022-10-16T00:16:40;12.50;99.90
4693;DHT22;11710;48.024;16.296;2022-10-16T00:19:08;12.50;99.90
4693;DHT22;11710;48.024;16.296;2022-10-16T00:21:35;12.50;99.90
4693;DHT22;11710;48.024;16.296;2022-10-16T00:24:05;12.60;99.90
4693;DHT22;11710;48.024;16.296;2022-10-16T00:26:36;12.60;99.90
4693;DHT22;11710;48.024;16.296;2022-10-16T00:29:04;12.60;99.90
4693;DHT22;11710;48.024;16.296;2022-10-16T00:31:32;12.60;99.90
4693;DHT22;11710;48.024;16.296;2022-10-16T00:33:59;12.60;99.90
4693;DHT22;11710;48.024;16.296;2022-10-16T00:36:26;12.60;99.90
4693;DHT22;11710;48.024;16.296;2022-10-16T00:38:54;12.60;99.90
4693;DHT22;11710;48.024;16.296;2022-10-16T00:41:24;12.50;99.90
4693;DHT22;11710;48.024;16.296;2022-10-16T00:43:56;12.50;99.90
4693;DHT22;11710;48.024;16.296;2022-10-16T00:46:25;12.50;99.90
4693;DHT22;11710;48.024;16.296;2022-10-16T00:48:56;12.50;99.90
4693;DHT22;11710;48.024;16.296;2022-10-16T00:51:29;12.50;99.90
4693;DHT22;11710;48.024;16.296;2022-10-16T00:53:57;12.50;99.90
4693;DHT22;11710;48.024;16.296;2022-10-16T00:56:24;12.50;99.90
4693;DHT22;11710;48.024;16.296;2022-10-16T00:58:53;12.50;99.90
4693;DHT22;11710;48.024;16.296;2022-10-16T01:01:20;12.40;99.90
4693;DHT22;11710;48.024;16.296;2022-10-16T01:03:47;12.40;99.90
4693;DHT22;11710;48.024;16.296;2022-10-16T01:06:22;12.20;99.90
4693;DHT22;11710;48.024;16.296;2022-10-16T01:09:00;12.20;99.90
4693;DHT22;11710;48.024;16.296;2022-10-16T01:11:33;12.10;99.90
4693;DHT22;11710;48.024;16.296;2022-10-16T01:14:08;12.10;99.90
4693;DHT22;11710;48.024;16.296;2022-10-16T01:16:41;12.10;99.90
4693;DHT22;11710;48.024;16.296;2022-10-16T01:19:15;12.10;99.90
4693;DHT22;11710;48.024;16.296;2022-10-16T01:21:46;12.10;99.90
4693;DHT22;11710;48.024;16.296;2022-10-16T01:24:22;12.10;99.90
4693;DHT22;11710;48.024;16.296;2022-10-16T01:27:07;12.20;99.90
4693;DHT22;11710;48.024;16.296;2022-10-16T01:29:38;12.20;99.90
4693;DHT22;11710;48.024;16.296;2022-10-16T01:32:13;12.20;99.90
4693;DHT22;11710;48.024;16.296;2022-10-16T01:34:49;12.10;99.90
4693;DHT22;11710;48.024;16.296;2022-10-16T01:37:32;12.10;99.90
4693;DHT22;11710;48.024;16.296;2022-10-16T01:40:05;12.10;99.90
4693;DHT22;11710;48.024;16.296;2022-10-16T01:42:35;12.10;99.90
4693;DHT22;11710;48.024;16.296;2022-10-16T01:45:05;12.10;99.90
4693;DHT22;11710;48.024;16.296;2022-10-16T01:47:35;12.10;99.90
4693;DHT22;11710;48.024;16.296;2022-10-16T01:50:04;12.10;99.90
4693;DHT22;11710;48.024;16.296;2022-10-16T01:52:37;12.00;99.90
4693;DHT22;11710;48.024;16.296;2022-10-16T01:55:07;12.10;99.90
4693;DHT22;11710;48.024;16.296;2022-10-16T01:57:42;12.00;99.90
4693;DHT22;11710;48.024;16.296;2022-10-16T02:00:13;12.00;99.90
4693;DHT22;11710;48.024;16.296;2022-10-16T02:02:43;12.00;99.90
4693;DHT22;11710;48.024;16.296;2022-10-16T02:05:16;12.00;99.90
4693;DHT22;11710;48.024;16.296;2022-10-16T02:07:44;12.00;99.90
4693;DHT22;11710;48.024;16.296;2022-10-16T02:10:11;12.00;99.90
4693;DHT22;11710;48.024;16.296;2022-10-16T02:12:43;12.00;99.90
4693;DHT22;11710;48.024;16.296;2022-10-16T02:15:14;11.90;99.90
4693;DHT22;11710;48.024;16.296;2022-10-16T02:17:41;11.90;99.90
4693;DHT22;11710;48.024;16.296;2022-10-16T02:20:08;11.90;99.90
4693;DHT22;11710;48.024;16.296;2022-10-16T02:22:40;11.80;99.90
4693;DHT22;11710;48.024;16.296;2022-10-16T02:25:11;11.70;99.90
4693;DHT22;11710;48.024;16.296;2022-10-16T02:27:47;11.70;99.90
4693;DHT22;11710;48.024;16.296;2022-10-16T02:30:21;11.70;99.90
4693;DHT22;11710;48.024;16.296;2022-10-16T02:32:49;11.70;99.90
4693;DHT22;11710;48.024;16.296;2022-10-16T02:35:18;11.70;99.90
4693;DHT22;11710;48.024;16.296;2022-10-16T02:37:47;11.80;99.90
4693;DHT22;11710;48.024;16.296;2022-10-16T02:40:14;11.80;99.90
4693;DHT22;11710;48.024;16.296;2022-10-16T02:42:43;11.80;99.90
4693;DHT22;11710;48.024;16.296;2022-10-16T02:45:13;11.90;99.90
4693;DHT22;11710;48.024;16.296;2022-10-16T02:47:40;11.90;99.90
4693;DHT22;11710;48.024;16.296;2022-10-16T02:50:07;11.90;99.90
4693;DHT22;11710;48.024;16.296;2022-10-16T02:52:34;12.00;99.90
4693;DHT22;11710;48.024;16.296;2022-10-16T02:55:03;12.00;99.90
4693;DHT22;11710;48.024;16.296;2022-10-16T02:57:30;12.00;99.90
4693;DHT22;11710;48.024;16.296;2022-10-16T02:59:59;11.90;99.90
4693;DHT22;11710;48.024;16.296;2022-10-16T03:02:26;11.80;99.90
4693;DHT22;11710;48.024;16.296;2022-10-16T03:04:53;11.80;99.90
4693;DHT22;11710;48.024;16.296;2022-10-16T03:07:20;11.70;99.90
4693;DHT22;11710;48.024;16.296;2022-10-16T03:09:46;11.70;99.90
4693;DHT22;11710;48.024;16.296;2022-10-16T03:12:13;11.60;99.90
4693;DHT22;11710;48.024;16.296;2022-10-16T03:14:40;11.60;99.90
4693;DHT22;11710;48.024;16.296;2022-10-16T03:17:09;11.50;99.90
4693;DHT22;11710;48.024;16.296;2022-10-16T03:19:36;11.50;99.90
4693;DHT22;11710;48.024;16.296;2022-10-16T03:22:04;11.50;99.90
4693;DHT22;11710;48.024;16.296;2022-10-16T03:24:31;11.50;99.90
4693;DHT22;11710;48.024;16.296;2022-10-16T03:26:58;11.50;99.90
4693;DHT22;11710;48.024;16.296;2022-10-16T03:29:25;11.50;99.90
4693;DHT22;11710;48.024;16.296;2022-10-16T03:31:53;11.50;99.90
4693;DHT22;11710;48.024;16.296;2022-10-16T03:34:21;11.50;99.90
4693;DHT22;11710;48.024;16.296;2022-10-16T03:36:48;11.50;99.90
4693;DHT22;11710;48.024;16.296;2022-10-16T03:39:15;11.40;99.90
4693;DHT22;11710;48.024;16.296;2022-10-16T03:41:42;11.40;99.90
4693;DHT22;11710;48.024;16.296;2022-10-16T03:44:12;11.40;99.90
4693;DHT22;11710;48.024;16.296;2022-10-16T03:46:44;11.50;99.90
4693;DHT22;11710;48.024;16.296;2022-10-16T03:49:11;11.40;99.90
4693;DHT22;11710;48.024;16.296;2022-10-16T03:51:39;11.40;99.90
4693;DHT22;11710;48.024;16.296;2022-10-16T03:54:06;11.40;99.90
4693;DHT22;11710;48.024;16.296;2022-10-16T03:56:33;11.40;99.90
4693;DHT22;11710;48.024;16.296;2022-10-16T03:59:00;11.40;99.90
4693;DHT22;11710;48.024;16.296;2022-10-16T04:01:27;11.40;99.90
4693;DHT22;11710;48.024;16.296;2022-10-16T04:03:54;11.40;99.90
4693;DHT22;11710;48.024;16.296;2022-10-16T04:06:21;11.50;99.90
4693;DHT22;11710;48.024;16.296;2022-10-16T04:08:49;11.50;99.90
4693;DHT22;11710;48.024;16.296;2022-10-16T04:11:16;11.50;99.90
4693;DHT22;11710;48.024;16.296;2022-10-16T04:13:43;11.50;99.90
4693;DHT22;11710;48.024;16.296;2022-10-16T04:16:09;11.50;99.90
4693;DHT22;11710;48.024;16.296;2022-10-16T04:18:36;11.50;99.90
4693;DHT22;11710;48.024;16.296;2022-10-16T04:21:04;11.40;99.90
4693;DHT22;11710;48.024;16.296;2022-10-16T04:23:31;11.40;99.90
4693;DHT22;11710;48.024;16.296;2022-10-16T04:26:00;11.40;99.90
4693;DHT22;11710;48.024;16.296;2022-10-16T04:28:27;11.50;99.90
4693;DHT22;11710;48.024;16.296;2022-10-16T04:30:54;11.50;99.90
4693;DHT22;11710;48.024;16.296;2022-10-16T04:33:21;11.50;99.90
4693;DHT22;11710;48.024;16.296;2022-10-16T04:35:48;11.50;99.90
4693;DHT22;11710;48.024;16.296;2022-10-16T04:38:15;11.50;99.90
4693;DHT22;11710;48.024;16.296;2022-10-16T04:40:43;11.50;99.90
4693;DHT22;11710;48.024;16.296;2022-10-16T04:43:11;11.50;99.90
4693;DHT22;11710;48.024;16.296;2022-10-16T04:45:38;11.50;99.90
4693;DHT22;11710;48.024;16.296;2022-10-16T04:48:05;11.50;99.90
4693;DHT22;11710;48.024;16.296;2022-10-16T04:50:31;11.50;99.90
4693;DHT22;11710;48.024;16.296;2022-10-16T04:52:58;11.50;99.90
4693;DHT22;11710;48.024;16.296;2022-10-16T04:55:25;11.50;99.90
4693;DHT22;11710;48.024;16.296;2022-10-16T04:57:52;11.50;99.90
4693;DHT22;11710;48.024;16.296;2022-10-16T05:00:21;11.50;99.90
4693;DHT22;11710;48.024;16.296;2022-10-16T05:02:49;11.50;99.90
4693;DHT22;11710;48.024;16.296;2022-10-16T05:05:16;11.50;99.90
4693;DHT22;11710;48.024;16.296;2022-10-16T05:07:44;11.40;99.90
4693;DHT22;11710;48.024;16.296;2022-10-16T05:10:11;11.40;99.90
4693;DHT22;11710;48.024;16.296;2022-10-16T05:12:38;11.30;99.90
4693;DHT22;11710;48.024;16.296;2022-10-16T05:15:06;11.20;99.90
4693;DHT22;11710;48.024;16.296;2022-10-16T05:17:35;11.20;99.90
4693;DHT22;11710;48.024;16.296;2022-10-16T05:20:02;11.20;99.90
4693;DHT22;11710;48.024;16.296;2022-10-16T05:22:29;11.20;99.90
4693;DHT22;11710;48.024;16.296;2022-10-16T05:24:56;11.20;99.90
4693;DHT22;11710;48.024;16.296;2022-10-16T05:27:23;11.30;99.90
4693;DHT22;11710;48.024;16.296;2022-10-16T05:29:49;11.30;99.90
4693;DHT22;11710;48.024;16.296;2022-10-16T05:32:17;11.30;99.90
4693;DHT22;11710;48.024;16.296;2022-10-16T05:34:46;11.30;99.90
4693;DHT22;11710;48.024;16.296;2022-10-16T05:37:13;11.20;99.90
4693;DHT22;11710;48.024;16.296;2022-10-16T05:39:40;11.20;99.90
4693;DHT22;11710;48.024;16.296;2022-10-16T05:42:07;11.20;99.90
4693;DHT22;11710;48.024;16.296;2022-10-16T05:44:34;11.30;99.90
4693;DHT22;11710;48.024;16.296;2022-10-16T05:47:01;11.30;99.90
4693;DHT22;11710;48.024;16.296;2022-10-16T05:49:28;11.30;99.90
4693;DHT22;11710;48.024;16.296;2022-10-16T05:51:56;11.30;99.90
4693;DHT22;11710;48.024;16.296;2022-10-16T05:54:23;11.30;99.90
4693;DHT22;11710;48.024;16.296;2022-10-16T05:56:50;11.40;99.90
4693;DHT22;11710;48.024;16.296;2022-10-16T05:59:17;11.40;99.90
4693;DHT22;11710;48.024;16.296;2022-10-16T06:01:43;11.40;99.90
4693;DHT22;11710;48.024;16.296;2022-10-16T06:04:10;11.60;99.90
4693;DHT22;11710;48.024;16.296;2022-10-16T06:06:39;11.60;99.90
4693;DHT22;11710;48.024;16.296;2022-10-16T06:09:08;11.70;99.90
4693;DHT22;11710;48.024;16.296;2022-10-16T06:11:36;11.70;99.90
4693;DHT22;11710;48.024;16.296;2022-10-16T06:14:03;11.80;99.90
4693;DHT22;11710;48.024;16.296;2022-10-16T06:16:33;11.90;99.90
4693;DHT22;11710;48.024;16.296;2022-10-16T06:19:00;11.90;99.90
4693;DHT22;11710;48.024;16.296;2022-10-16T06:21:28;12.00;99.90
4693;DHT22;11710;48.024;16.296;2022-10-16T06:23:56;12.00;99.90
4693;DHT22;11710;48.024;16.296;2022-10-16T06:26:28;12.10;99.90
4693;DHT22;11710;48.024;16.296;2022-10-16T06:28:58;12.10;99.90
4693;DHT22;11710;48.024;16.296;2022-10-16T06:31:25;12.10;99.90
4693;DHT22;11710;48.024;16.296;2022-10-16T06:33:54;12.20;99.90
4693;DHT22;11710;48.024;16.296;2022-10-16T06:36:22;12.20;99.90
4693;DHT22;11710;48.024;16.296;2022-10-16T06:38:49;12.20;99.90
4693;DHT22;11710;48.024;16.296;2022-10-16T06:41:18;12.30;99.90
4693;DHT22;11710;48.024;16.296;2022-10-16T06:43:46;12.30;99.90
4693;DHT22;11710;48.024;16.296;2022-10-16T06:46:15;12.30;99.90
4693;DHT22;11710;48.024;16.296;2022-10-16T06:48:42;12.20;99.90
4693;DHT22;11710;48.024;16.296;2022-10-16T06:51:11;12.20;99.90
4693;DHT22;11710;48.024;16.296;2022-10-16T06:53:40;12.20;99.90
4693;DHT22;11710;48.024;16.296;2022-10-16T06:56:08;12.20;99.90
4693;DHT22;11710;48.024;16.296;2022-10-16T06:58:35;12.20;99.90
4693;DHT22;11710;48.024;16.296;2022-10-16T07:01:07;12.30;99.90
4693;DHT22;11710;48.024;16.296;2022-10-16T07:03:36;12.30;99.90
4693;DHT22;11710;48.024;16.296;2022-10-16T07:06:05;12.40;99.90
4693;DHT22;11710;48.024;16.296;2022-10-16T07:08:32;12.50;99.90
4693;DHT22;11710;48.024;16.296;2022-10-16T07:11:00;12.60;99.90
4693;DHT22;11710;48.024;16.296;2022-10-16T07:13:27;12.80;99.90
4693;DHT22;11710;48.024;16.296;2022-10-16T07:15:54;12.90;99.90
4693;DHT22;11710;48.024;16.296;2022-10-16T07:18:22;13.00;99.90
4693;DHT22;11710;48.024;16.296;2022-10-16T07:20:52;13.00;99.90
4693;DHT22;11710;48.024;16.296;2022-10-16T07:23:19;13.10;99.90
4693;DHT22;11710;48.024;16.296;2022-10-16T07:25:53;13.20;99.90
4693;DHT22;11710;48.024;16.296;2022-10-16T07:28:20;13.30;99.90
4693;DHT22;11710;48.024;16.296;2022-10-16T07:30:47;13.30;99.90
4693;DHT22;11710;48.024;16.296;2022-10-16T07:33:14;13.40;99.90
4693;DHT22;11710;48.024;16.296;2022-10-16T07:35:49;13.40;99.90
4693;DHT22;11710;48.024;16.296;2022-10-16T07:38:16;13.40;99.90
4693;DHT22;11710;48.024;16.296;2022-10-16T07:40:43;13.40;99.90
4693;DHT22;11710;48.024;16.296;2022-10-16T07:43:11;13.50;99.90
4693;DHT22;11710;48.024;16.296;2022-10-16T07:45:46;13.60;99.90
4693;DHT22;11710;48.024;16.296;2022-10-16T07:48:13;13.70;99.90
4693;DHT22;11710;48.024;16.296;2022-10-16T07:50:42;13.70;99.90
4693;DHT22;11710;48.024;16.296;2022-10-16T07:53:11;13.80;99.90
4693;DHT22;11710;48.024;16.296;2022-10-16T07:55:38;13.80;99.90
4693;DHT22;11710;48.024;16.296;2022-10-16T07:58:06;13.90;99.90
4693;DHT22;11710;48.024;16.296;2022-10-16T08:00:35;13.90;99.90
4693;DHT22;11710;48.024;16.296;2022-10-16T08:03:02;13.90;99.90
4693;DHT22;11710;48.024;16.296;2022-10-16T08:05:31;13.90;99.90
4693;DHT22;11710;48.024;16.296;2022-10-16T08:07:58;13.90;99.90
4693;DHT22;11710;48.024;16.296;2022-10-16T08:10:27;13.90;99.90
4693;DHT22;11710;48.024;16.296;2022-10-16T08:12:54;13.90;99.90
4693;DHT22;11710;48.024;16.296;2022-10-16T08:15:22;13.90;99.90
4693;DHT22;11710;48.024;16.296;2022-10-16T08:17:55;14.00;99.90
4693;DHT22;11710;48.024;16.296;2022-10-16T08:20:22;14.00;99.90
4693;DHT22;11710;48.024;16.296;2022-10-16T08:22:49;14.10;99.90
4693;DHT22;11710;48.024;16.296;2022-10-16T08:25:16;14.00;99.90
4693;DHT22;11710;48.024;16.296;2022-10-16T08:27:44;14.00;99.90
4693;DHT22;11710;48.024;16.296;2022-10-16T08:30:11;14.00;99.90
4693;DHT22;11710;48.024;16.296;2022-10-16T08:32:42;14.10;99.90
4693;DHT22;11710;48.024;16.296;2022-10-16T08:35:09;14.20;99.90
4693;DHT22;11710;48.024;16.296;2022-10-16T08:37:37;14.30;99.90
4693;DHT22;11710;48.024;16.296;2022-10-16T08:40:06;14.30;99.90
4693;DHT22;11710;48.024;16.296;2022-10-16T08:42:44;14.40;99.90
4693;DHT22;11710;48.024;16.296;2022-10-16T08:45:30;14.40;99.90
4693;DHT22;11710;48.024;16.296;2022-10-16T08:48:06;14.50;99.90
4693;DHT22;11710;48.024;16.296;2022-10-16T08:50:39;14.50;99.90
4693;DHT22;11710;48.024;16.296;2022-10-16T08:53:07;14.50;99.90
4693;DHT22;11710;48.024;16.296;2022-10-16T08:55:41;14.60;99.90
4693;DHT22;11710;48.024;16.296;2022-10-16T08:58:13;14.50;99.90
4693;DHT22;11710;48.024;16.296;2022-10-16T09:00:42;14.40;99.90
4693;DHT22;11710;48.024;16.296;2022-10-16T09:03:17;14.50;99.90
4693;DHT22;11710;48.024;16.296;2022-10-16T09:09:04;14.70;99.90
4693;DHT22;11710;48.024;16.296;2022-10-16T09:11:39;14.70;99.90
4693;DHT22;11710;48.024;16.296;2022-10-16T09:14:31;14.80;99.90
4693;DHT22;11710;48.024;16.296;2022-10-16T09:17:11;14.90;99.90
4693;DHT22;11710;48.024;16.296;2022-10-16T09:19:49;15.00;99.90
4693;DHT22;11710;48.024;16.296;2022-10-16T09:22:18;14.90;99.90
4693;DHT22;11710;48.024;16.296;2022-10-16T09:24:48;15.00;99.90
4693;DHT22;11710;48.024;16.296;2022-10-16T09:27:17;15.10;99.90
4693;DHT22;11710;48.024;16.296;2022-10-16T09:29:46;15.10;99.90
4693;DHT22;11710;48.024;16.296;2022-10-16T09:32:17;15.20;99.90
4693;DHT22;11710;48.024;16.296;2022-10-16T09:34:47;15.30;99.90
4693;DHT22;11710;48.024;16.296;2022-10-16T09:37:18;15.40;99.90
4693;DHT22;11710;48.024;16.296;2022-10-16T09:39:46;15.40;99.90
4693;DHT22;11710;48.024;16.296;2022-10-16T09:42:15;15.30;99.90
4693;DHT22;11710;48.024;16.296;2022-10-16T09:44:48;15.30;99.90
4693;DHT22;11710;48.024;16.296;2022-10-16T09:47:21;15.40;99.90
4693;DHT22;11710;48.024;16.296;2022-10-16T09:49:54;15.40;99.90
4693;DHT22;11710;48.024;16.296;2022-10-16T09:52:22;15.40;99.90
4693;DHT22;11710;48.024;16.296;2022-10-16T09:54:50;15.30;99.90
4693;DHT22;11710;48.024;16.296;2022-10-16T09:57:17;15.20;99.90
4693;DHT22;11710;48.024;16.296;2022-10-16T09:59:50;15.10;99.90
4693;DHT22;11710;48.024;16.296;2022-10-16T10:02:20;14.90;99.90
4693;DHT22;11710;48.024;16.296;2022-10-16T10:04:51;14.80;99.90
4693;DHT22;11710;48.024;16.296;2022-10-16T10:07:24;14.70;99.90
4693;DHT22;11710;48.024;16.296;2022-10-16T10:09:52;14.70;99.90
4693;DHT22;11710;48.024;16.296;2022-10-16T10:12:21;14.80;99.90
4693;DHT22;11710;48.024;16.296;2022-10-16T10:14:51;14.90;99.90
4693;DHT22;11710;48.024;16.296;2022-10-16T10:17:20;15.00;99.90
4693;DHT22;11710;48.024;16.296;2022-10-16T10:19:50;15.10;99.90
4693;DHT22;11710;48.024;16.296;2022-10-16T10:22:23;15.10;99.90
4693;DHT22;11710;48.024;16.296;2022-10-16T10:25:00;15.20;99.90
4693;DHT22;11710;48.024;16.296;2022-10-16T10:27:38;15.30;99.90
4693;DHT22;11710;48.024;16.296;2022-10-16T10:30:11;15.30;99.90
4693;DHT22;11710;48.024;16.296;2022-10-16T10:32:47;15.40;99.90
4693;DHT22;11710;48.024;16.296;2022-10-16T10:35:22;15.30;99.90
4693;DHT22;11710;48.024;16.296;2022-10-16T10:38:01;15.30;99.90
4693;DHT22;11710;48.024;16.296;2022-10-16T10:40:39;15.40;99.90
4693;DHT22;11710;48.024;16.296;2022-10-16T10:43:17;15.50;99.90
4693;DHT22;11710;48.024;16.296;2022-10-16T10:45:48;15.60;99.90
4693;DHT22;11710;48.024;16.296;2022-10-16T10:48:26;15.70;99.90
4693;DHT22;11710;48.024;16.296;2022-10-16T10:50:59;15.80;99.90
4693;DHT22;11710;48.024;16.296;2022-10-16T10:53:36;16.00;99.90
4693;DHT22;11710;48.024;16.296;2022-10-16T10:56:19;16.30;99.90
4693;DHT22;11710;48.024;16.296;2022-10-16T10:59:01;16.40;99.90
4693;DHT22;11710;48.024;16.296;2022-10-16T11:01:39;16.60;99.90
4693;DHT22;11710;48.024;16.296;2022-10-16T11:07:12;16.70;99.90
4693;DHT22;11710;48.024;16.296;2022-10-16T11:09:44;16.90;99.90
4693;DHT22;11710;48.024;16.296;2022-10-16T11:12:17;17.00;99.90
4693;DHT22;11710;48.024;16.296;2022-10-16T11:14:49;17.10;99.90
4693;DHT22;11710;48.024;16.296;2022-10-16T11:17:23;17.30;99.90
4693;DHT22;11710;48.024;16.296;2022-10-16T11:19:55;17.40;99.90
4693;DHT22;11710;48.024;16.296;2022-10-16T11:22:29;17.60;99.90
4693;DHT22;11710;48.024;16.296;2022-10-16T11:25:02;17.80;99.90
4693;DHT22;11710;48.024;16.296;2022-10-16T11:27:37;18.10;99.90
4693;DHT22;11710;48.024;16.296;2022-10-16T11:30:12;18.40;99.90
4693;DHT22;11710;48.024;16.296;2022-10-16T11:32:50;18.60;99.90
4693;DHT22;11710;48.024;16.296;2022-10-16T11:35:22;18.80;99.90
4693;DHT22;11710;48.024;16.296;2022-10-16T11:37:53;18.90;99.90
4693;DHT22;11710;48.024;16.296;2022-10-16T11:40:26;19.00;99.90
4693;DHT22;11710;48.024;16.296;2022-10-16T11:42:57;19.10;99.90
4693;DHT22;11710;48.024;16.296;2022-10-16T11:45:29;19.20;99.90
4693;DHT22;11710;48.024;16.296;2022-10-16T11:48:03;19.30;99.90
4693;DHT22;11710;48.024;16.296;2022-10-16T11:50:35;19.40;99.90
4693;DHT22;11710;48.024;16.296;2022-10-16T11:53:12;19.60;99.90
4693;DHT22;11710;48.024;16.296;2022-10-16T11:55:42;19.80;99.90
4693;DHT22;11710;48.024;16.296;2022-10-16T11:58:22;19.90;99.90
4693;DHT22;11710;48.024;16.296;2022-10-16T12:01:10;20.00;99.90
4693;DHT22;11710;48.024;16.296;2022-10-16T12:03:48;20.20;99.90
4693;DHT22;11710;48.024;16.296;2022-10-16T12:06:31;20.30;99.90
4693;DHT22;11710;48.024;16.296;2022-10-16T12:09:00;20.40;99.90
4693;DHT22;11710;48.024;16.296;2022-10-16T12:11:36;20.70;99.90
4693;DHT22;11710;48.024;16.296;2022-10-16T12:14:07;20.90;99.90
4693;DHT22;11710;48.024;16.296;2022-10-16T12:16:37;21.00;99.90
4693;DHT22;11710;48.024;16.296;2022-10-16T12:19:14;21.10;99.90
4693;DHT22;11710;48.024;16.296;2022-10-16T12:21:41;21.30;99.90
4693;DHT22;11710;48.024;16.296;2022-10-16T12:24:29;21.40;99.90
4693;DHT22;11710;48.024;16.296;2022-10-16T12:27:23;21.50;99.90
4693;DHT22;11710;48.024;16.296;2022-10-16T12:29:54;21.40;99.90
4693;DHT22;11710;48.024;16.296;2022-10-16T12:32:29;21.30;99.90
4693;DHT22;11710;48.024;16.296;2022-10-16T12:34:59;21.40;99.90
4693;DHT22;11710;48.024;16.296;2022-10-16T12:37:31;21.60;99.90
4693;DHT22;11710;48.024;16.296;2022-10-16T12:39:59;21.60;99.90
4693;DHT22;11710;48.024;16.296;2022-10-16T12:42:33;21.50;99.90
4693;DHT22;11710;48.024;16.296;2022-10-16T12:45:12;21.60;99.90
4693;DHT22;11710;48.024;16.296;2022-10-16T12:47:48;21.70;99.90
4693;DHT22;11710;48.024;16.296;2022-10-16T12:50:28;21.70;99.90
4693;DHT22;11710;48.024;16.296;2022-10-16T12:52:56;21.70;99.90
4693;DHT22;11710;48.024;16.296;2022-10-16T12:55:23;21.60;99.90
4693;DHT22;11710;48.024;16.296;2022-10-16T13:00:57;21.30;99.90
4693;DHT22;11710;48.024;16.296;2022-10-16T13:03:47;21.20;99.90
4693;DHT22;11710;48.024;16.296;2022-10-16T13:06:30;21.20;99.90
4693;DHT22;11710;48.024;16.296;2022-10-16T13:09:21;21.30;99.90
4693;DHT22;11710;48.024;16.296;2022-10-16T13:15:01;21.40;99.90
4693;DHT22;11710;48.024;16.296;2022-10-16T13:17:37;21.50;99.90
4693;DHT22;11710;48.024;16.296;2022-10-16T13:20:16;21.60;99.90
4693;DHT22;11710;48.024;16.296;2022-10-16T13:22:51;21.70;99.90
4693;DHT22;11710;48.024;16.296;2022-10-16T13:25:30;21.80;99.90
4693;DHT22;11710;48.024;16.296;2022-10-16T13:28:02;21.90;99.90
4693;DHT22;11710;48.024;16.296;2022-10-16T13:30:31;22.00;99.90
4693;DHT22;11710;48.024;16.296;2022-10-16T13:33:04;22.00;99.90
4693;DHT22;11710;48.024;16.296;2022-10-16T13:35:35;22.00;99.90
4693;DHT22;11710;48.024;16.296;2022-10-16T13:38:22;22.10;99.90
4693;DHT22;11710;48.024;16.296;2022-10-16T13:40:52;22.10;99.90
4693;DHT22;11710;48.024;16.296;2022-10-16T13:43:22;22.20;99.90
4693;DHT22;11710;48.024;16.296;2022-10-16T13:45:57;22.10;99.90
4693;DHT22;11710;48.024;16.296;2022-10-16T13:48:25;22.20;99.90
4693;DHT22;11710;48.024;16.296;2022-10-16T13:51:12;22.20;99.90
4693;DHT22;11710;48.024;16.296;2022-10-16T13:53:41;22.30;99.90
4693;DHT22;11710;48.024;16.296;2022-10-16T13:56:12;22.30;99.90
4693;DHT22;11710;48.024;16.296;2022-10-16T13:58:40;22.30;99.90
4693;DHT22;11710;48.024;16.296;2022-10-16T14:01:16;22.40;99.90
4693;DHT22;11710;48.024;16.296;2022-10-16T14:03:45;22.30;99.90
4693;DHT22;11710;48.024;16.296;2022-10-16T14:06:14;22.20;99.90
4693;DHT22;11710;48.024;16.296;2022-10-16T14:08:47;22.20;99.90
4693;DHT22;11710;48.024;16.296;2022-10-16T14:11:20;22.10;99.90
4693;DHT22;11710;48.024;16.296;2022-10-16T14:13:48;22.00;99.90
4693;DHT22;11710;48.024;16.296;2022-10-16T14:16:18;22.10;99.90
4693;DHT22;11710;48.024;16.296;2022-10-16T14:18:50;22.10;99.90
4693;DHT22;11710;48.024;16.296;2022-10-16T14:21:20;22.10;99.90
4693;DHT22;11710;48.024;16.296;2022-10-16T14:23:48;22.20;99.90
4693;DHT22;11710;48.024;16.296;2022-10-16T14:26:17;22.20;99.90
4693;DHT22;11710;48.024;16.296;2022-10-16T14:28:47;22.20;99.90
4693;DHT22;11710;48.024;16.296;2022-10-16T14:31:25;22.30;99.90
4693;DHT22;11710;48.024;16.296;2022-10-16T14:33:53;22.40;99.90
4693;DHT22;11710;48.024;16.296;2022-10-16T14:36:20;22.40;99.90
4693;DHT22;11710;48.024;16.296;2022-10-16T14:38:59;22.40;99.90
4693;DHT22;11710;48.024;16.296;2022-10-16T14:41:27;22.40;99.90
4693;DHT22;11710;48.024;16.296;2022-10-16T14:43:56;22.30;99.90
4693;DHT22;11710;48.024;16.296;2022-10-16T14:46:31;22.30;99.90
4693;DHT22;11710;48.024;16.296;2022-10-16T14:49:03;22.30;99.90
4693;DHT22;11710;48.024;16.296;2022-10-16T14:51:31;22.30;99.90
4693;DHT22;11710;48.024;16.296;2022-10-16T14:53:59;22.20;99.90
4693;DHT22;11710;48.024;16.296;2022-10-16T14:56:30;22.20;99.90
4693;DHT22;11710;48.024;16.296;2022-10-16T14:58:57;22.20;99.90
4693;DHT22;11710;48.024;16.296;2022-10-16T15:01:24;22.20;99.90
4693;DHT22;11710;48.024;16.296;2022-10-16T15:03:51;22.10;99.90
4693;DHT22;11710;48.024;16.296;2022-10-16T15:06:20;22.00;99.90
4693;DHT22;11710;48.024;16.296;2022-10-16T15:08:47;22.00;99.90
4693;DHT22;11710;48.024;16.296;2022-10-16T15:11:18;21.90;99.90
4693;DHT22;11710;48.024;16.296;2022-10-16T15:13:45;21.80;99.90
4693;DHT22;11710;48.024;16.296;2022-10-16T15:16:13;21.80;99.90
4693;DHT22;11710;48.024;16.296;2022-10-16T15:18:41;21.80;99.90
4693;DHT22;11710;48.024;16.296;2022-10-16T15:21:09;21.70;99.90
4693;DHT22;11710;48.024;16.296;2022-10-16T15:23:44;21.60;99.90
4693;DHT22;11710;48.024;16.296;2022-10-16T15:26:11;21.50;99.90
4693;DHT22;11710;48.024;16.296;2022-10-16T15:28:39;21.40;99.90
4693;DHT22;11710;48.024;16.296;2022-10-16T15:31:06;21.40;99.90
4693;DHT22;11710;48.024;16.296;2022-10-16T15:33:33;21.30;99.90
4693;DHT22;11710;48.024;16.296;2022-10-16T15:36:02;21.20;99.90
4693;DHT22;11710;48.024;16.296;2022-10-16T15:38:30;21.10;99.90
4693;DHT22;11710;48.024;16.296;2022-10-16T15:40:57;21.00;99.90
4693;DHT22;11710;48.024;16.296;2022-10-16T15:43:24;20.90;99.90
4693;DHT22;11710;48.024;16.296;2022-10-16T15:45:59;20.80;99.90
4693;DHT22;11710;48.024;16.296;2022-10-16T15:48:28;20.70;99.90
4693;DHT22;11710;48.024;16.296;2022-10-16T15:50:55;20.60;99.90
4693;DHT22;11710;48.024;16.296;2022-10-16T15:53:25;20.50;99.90
4693;DHT22;11710;48.024;16.296;2022-10-16T15:55:51;20.40;99.90
4693;DHT22;11710;48.024;16.296;2022-10-16T15:58:19;20.30;99.90
4693;DHT22;11710;48.024;16.296;2022-10-16T16:00:55;20.20;99.90
4693;DHT22;11710;48.024;16.296;2022-10-16T16:03:23;20.10;99.90